Lake Murray Shores, South Carolina
Current Conditions -  °F | °C
As of 10:56 PM on Saturday 22 Nov 2014 (Local Time) from KCAE Reporting Station
Overcast Overcast  
Wind Chill: 50°   Ceiling: 12000
Heat Index: 50°   Visibility: 10mi
Dew Point: 34°   Wind: 5mph
Humidity: 54%   Direction: 90°E
Pressure: 30.29"   Gusts: NA
Location:  33.8822°N, 81.433°W
Report Text: KCAE 230356Z 09004KT 10SM OVC120 10/01 A3029 RMK AO2 SLP258 T01000011
Loading
Personal Weather Stations






























Interactive Weather Map New forecast layout! Learn more

10-Day Weather Forecast

Advertisements
Track Severe Weather on mobile